sensor_id;sensor_type;location;lat;lon;timestamp;temperature;humidity
49441;DHT22;35317;51.978;6.296;2024-02-26T00:01:00;6.00;99.90
49441;DHT22;35317;51.978;6.296;2024-02-26T00:06:02;5.90;99.90
49441;DHT22;35317;51.978;6.296;2024-02-26T00:11:03;5.90;99.90
49441;DHT22;35317;51.978;6.296;2024-02-26T00:16:04;5.90;99.90
49441;DHT22;35317;51.978;6.296;2024-02-26T00:21:06;5.90;99.90
49441;DHT22;35317;51.978;6.296;2024-02-26T00:26:07;5.90;99.90
49441;DHT22;35317;51.978;6.296;2024-02-26T00:31:08;5.80;99.90
49441;DHT22;35317;51.978;6.296;2024-02-26T00:36:09;5.80;99.90
49441;DHT22;35317;51.978;6.296;2024-02-26T00:41:10;5.80;99.90
49441;DHT22;35317;51.978;6.296;2024-02-26T00:46:10;5.80;99.90
49441;DHT22;35317;51.978;6.296;2024-02-26T00:51:11;5.80;99.90
49441;DHT22;35317;51.978;6.296;2024-02-26T00:56:12;5.80;99.90
49441;DHT22;35317;51.978;6.296;2024-02-26T01:01:13;5.90;99.90
49441;DHT22;35317;51.978;6.296;2024-02-26T01:06:14;5.90;99.90
49441;DHT22;35317;51.978;6.296;2024-02-26T01:11:15;6.00;99.90
49441;DHT22;35317;51.978;6.296;2024-02-26T01:16:15;6.00;99.90
49441;DHT22;35317;51.978;6.296;2024-02-26T01:21:16;6.00;99.90
49441;DHT22;35317;51.978;6.296;2024-02-26T01:26:17;6.10;99.90
49441;DHT22;35317;51.978;6.296;2024-02-26T01:31:18;6.10;99.90
49441;DHT22;35317;51.978;6.296;2024-02-26T01:36:18;6.20;99.90
49441;DHT22;35317;51.978;6.296;2024-02-26T01:41:19;6.20;99.90
49441;DHT22;35317;51.978;6.296;2024-02-26T01:46:20;6.20;99.90
49441;DHT22;35317;51.978;6.296;2024-02-26T01:51:22;6.20;99.90
49441;DHT22;35317;51.978;6.296;2024-02-26T01:56:23;6.20;99.90
49441;DHT22;35317;51.978;6.296;2024-02-26T02:01:30;6.20;99.90
49441;DHT22;35317;51.978;6.296;2024-02-26T02:06:31;6.30;99.90
49441;DHT22;35317;51.978;6.296;2024-02-26T02:11:33;6.20;99.90
49441;DHT22;35317;51.978;6.296;2024-02-26T02:16:35;6.20;99.90
49441;DHT22;35317;51.978;6.296;2024-02-26T02:21:35;6.20;99.90
49441;DHT22;35317;51.978;6.296;2024-02-26T02:26:36;6.20;99.90
49441;DHT22;35317;51.978;6.296;2024-02-26T02:31:37;6.20;99.90
49441;DHT22;35317;51.978;6.296;2024-02-26T02:36:54;6.30;99.90
49441;DHT22;35317;51.978;6.296;2024-02-26T02:41:55;6.30;99.90
49441;DHT22;35317;51.978;6.296;2024-02-26T02:46:55;6.30;99.90
49441;DHT22;35317;51.978;6.296;2024-02-26T02:51:56;6.30;99.90
49441;DHT22;35317;51.978;6.296;2024-02-26T02:56:58;6.30;99.90
49441;DHT22;35317;51.978;6.296;2024-02-26T03:01:58;6.30;99.90
49441;DHT22;35317;51.978;6.296;2024-02-26T03:06:59;6.30;99.90
49441;DHT22;35317;51.978;6.296;2024-02-26T03:12:00;6.30;99.90
49441;DHT22;35317;51.978;6.296;2024-02-26T03:17:01;6.30;99.90
49441;DHT22;35317;51.978;6.296;2024-02-26T03:22:02;6.30;99.90
49441;DHT22;35317;51.978;6.296;2024-02-26T03:27:03;6.30;99.90
49441;DHT22;35317;51.978;6.296;2024-02-26T03:32:06;6.30;99.90
49441;DHT22;35317;51.978;6.296;2024-02-26T03:37:06;6.40;99.90
49441;DHT22;35317;51.978;6.296;2024-02-26T03:42:09;6.40;99.90
49441;DHT22;35317;51.978;6.296;2024-02-26T03:47:10;6.40;99.90
49441;DHT22;35317;51.978;6.296;2024-02-26T03:52:11;6.50;99.90
49441;DHT22;35317;51.978;6.296;2024-02-26T03:57:12;6.50;99.90
49441;DHT22;35317;51.978;6.296;2024-02-26T04:02:12;6.50;99.90
49441;DHT22;35317;51.978;6.296;2024-02-26T04:07:13;6.50;99.90
49441;DHT22;35317;51.978;6.296;2024-02-26T04:12:14;6.50;99.90
49441;DHT22;35317;51.978;6.296;2024-02-26T04:17:15;6.50;99.90
49441;DHT22;35317;51.978;6.296;2024-02-26T04:22:15;6.50;99.90
49441;DHT22;35317;51.978;6.296;2024-02-26T04:27:16;6.50;99.90
49441;DHT22;35317;51.978;6.296;2024-02-26T04:32:17;6.40;99.90
49441;DHT22;35317;51.978;6.296;2024-02-26T04:37:18;6.40;99.90
49441;DHT22;35317;51.978;6.296;2024-02-26T04:42:18;6.40;99.90
49441;DHT22;35317;51.978;6.296;2024-02-26T04:47:19;6.30;99.90
49441;DHT22;35317;51.978;6.296;2024-02-26T04:52:22;6.30;99.90
49441;DHT22;35317;51.978;6.296;2024-02-26T04:57:23;6.20;99.90
49441;DHT22;35317;51.978;6.296;2024-02-26T05:02:24;6.10;99.90
49441;DHT22;35317;51.978;6.296;2024-02-26T05:07:24;6.10;99.90
49441;DHT22;35317;51.978;6.296;2024-02-26T05:12:25;6.00;99.90
49441;DHT22;35317;51.978;6.296;2024-02-26T05:17:26;6.00;99.90
49441;DHT22;35317;51.978;6.296;2024-02-26T05:22:27;5.90;99.90
49441;DHT22;35317;51.978;6.296;2024-02-26T05:27:28;5.90;99.90
49441;DHT22;35317;51.978;6.296;2024-02-26T05:32:28;5.80;99.90
49441;DHT22;35317;51.978;6.296;2024-02-26T05:37:30;5.80;99.90
49441;DHT22;35317;51.978;6.296;2024-02-26T05:42:30;5.80;99.90
49441;DHT22;35317;51.978;6.296;2024-02-26T05:47:35;5.80;99.90
49441;DHT22;35317;51.978;6.296;2024-02-26T05:52:39;5.80;99.90
49441;DHT22;35317;51.978;6.296;2024-02-26T05:57:40;5.70;99.90
49441;DHT22;35317;51.978;6.296;2024-02-26T06:02:41;5.70;99.90
49441;DHT22;35317;51.978;6.296;2024-02-26T06:07:42;5.70;99.90
49441;DHT22;35317;51.978;6.296;2024-02-26T06:12:43;5.70;99.90
49441;DHT22;35317;51.978;6.296;2024-02-26T06:17:43;5.70;99.90
49441;DHT22;35317;51.978;6.296;2024-02-26T06:22:44;5.70;99.90
49441;DHT22;35317;51.978;6.296;2024-02-26T06:27:45;5.70;99.90
49441;DHT22;35317;51.978;6.296;2024-02-26T06:32:46;5.70;99.90
49441;DHT22;35317;51.978;6.296;2024-02-26T06:37:46;5.60;99.90
49441;DHT22;35317;51.978;6.296;2024-02-26T06:42:47;5.60;99.90
49441;DHT22;35317;51.978;6.296;2024-02-26T06:47:48;5.70;99.90
49441;DHT22;35317;51.978;6.296;2024-02-26T06:52:49;5.60;99.90
49441;DHT22;35317;51.978;6.296;2024-02-26T06:57:50;5.60;99.90
49441;DHT22;35317;51.978;6.296;2024-02-26T07:02:50;5.70;99.90
49441;DHT22;35317;51.978;6.296;2024-02-26T07:07:51;5.60;99.90
49441;DHT22;35317;51.978;6.296;2024-02-26T07:12:52;5.60;99.90
49441;DHT22;35317;51.978;6.296;2024-02-26T07:17:53;5.70;99.90
49441;DHT22;35317;51.978;6.296;2024-02-26T07:22:53;5.70;99.90
49441;DHT22;35317;51.978;6.296;2024-02-26T07:27:54;5.70;99.90
49441;DHT22;35317;51.978;6.296;2024-02-26T07:32:55;5.70;99.90
49441;DHT22;35317;51.978;6.296;2024-02-26T07:37:56;5.70;99.90
49441;DHT22;35317;51.978;6.296;2024-02-26T07:42:57;5.70;99.90
49441;DHT22;35317;51.978;6.296;2024-02-26T07:47:58;5.80;99.90
49441;DHT22;35317;51.978;6.296;2024-02-26T07:52:58;5.80;99.90
49441;DHT22;35317;51.978;6.296;2024-02-26T07:57:59;5.80;99.90
49441;DHT22;35317;51.978;6.296;2024-02-26T08:03:01;5.80;99.90
49441;DHT22;35317;51.978;6.296;2024-02-26T08:08:01;5.80;99.90
49441;DHT22;35317;51.978;6.296;2024-02-26T08:13:02;5.90;99.90
49441;DHT22;35317;51.978;6.296;2024-02-26T08:18:06;5.90;99.90
49441;DHT22;35317;51.978;6.296;2024-02-26T08:23:06;5.90;99.90
49441;DHT22;35317;51.978;6.296;2024-02-26T08:28:07;5.90;99.90
49441;DHT22;35317;51.978;6.296;2024-02-26T08:33:08;5.90;99.90
49441;DHT22;35317;51.978;6.296;2024-02-26T08:38:09;5.90;99.90
49441;DHT22;35317;51.978;6.296;2024-02-26T08:43:10;5.90;99.90
49441;DHT22;35317;51.978;6.296;2024-02-26T08:48:10;5.90;99.90
49441;DHT22;35317;51.978;6.296;2024-02-26T08:53:11;5.90;99.90
49441;DHT22;35317;51.978;6.296;2024-02-26T08:58:12;5.90;99.90
49441;DHT22;35317;51.978;6.296;2024-02-26T09:03:13;6.00;99.90
49441;DHT22;35317;51.978;6.296;2024-02-26T09:08:14;6.00;99.90
49441;DHT22;35317;51.978;6.296;2024-02-26T09:13:14;6.00;99.90
49441;DHT22;35317;51.978;6.296;2024-02-26T09:18:15;6.00;99.90
49441;DHT22;35317;51.978;6.296;2024-02-26T09:23:16;6.10;99.90
49441;DHT22;35317;51.978;6.296;2024-02-26T09:28:17;6.20;99.90
49441;DHT22;35317;51.978;6.296;2024-02-26T09:33:18;6.20;99.90
49441;DHT22;35317;51.978;6.296;2024-02-26T09:38:18;6.20;99.90
49441;DHT22;35317;51.978;6.296;2024-02-26T09:43:22;6.30;99.90
49441;DHT22;35317;51.978;6.296;2024-02-26T09:48:25;6.30;99.90
49441;DHT22;35317;51.978;6.296;2024-02-26T09:53:28;6.30;99.90
49441;DHT22;35317;51.978;6.296;2024-02-26T09:58:32;6.30;99.90
49441;DHT22;35317;51.978;6.296;2024-02-26T10:03:39;6.40;99.90
49441;DHT22;35317;51.978;6.296;2024-02-26T10:08:43;6.40;99.90
49441;DHT22;35317;51.978;6.296;2024-02-26T10:13:44;6.40;99.90
49441;DHT22;35317;51.978;6.296;2024-02-26T10:18:53;6.50;99.90
49441;DHT22;35317;51.978;6.296;2024-02-26T10:23:56;6.50;99.90
49441;DHT22;35317;51.978;6.296;2024-02-26T10:28:59;6.40;99.90
49441;DHT22;35317;51.978;6.296;2024-02-26T10:34:01;6.40;99.90
49441;DHT22;35317;51.978;6.296;2024-02-26T10:39:05;6.40;99.90
49441;DHT22;35317;51.978;6.296;2024-02-26T10:44:05;6.40;99.90
49441;DHT22;35317;51.978;6.296;2024-02-26T10:49:14;6.50;99.90
49441;DHT22;35317;51.978;6.296;2024-02-26T10:54:19;6.50;99.90
49441;DHT22;35317;51.978;6.296;2024-02-26T10:59:20;6.50;99.90
49441;DHT22;35317;51.978;6.296;2024-02-26T11:04:22;6.40;99.90
49441;DHT22;35317;51.978;6.296;2024-02-26T11:09:25;6.50;99.90
49441;DHT22;35317;51.978;6.296;2024-02-26T11:14:29;6.50;99.90
49441;DHT22;35317;51.978;6.296;2024-02-26T11:19:31;6.50;99.90
49441;DHT22;35317;51.978;6.296;2024-02-26T11:24:33;6.50;99.90
49441;DHT22;35317;51.978;6.296;2024-02-26T11:29:38;6.50;99.90
49441;DHT22;35317;51.978;6.296;2024-02-26T11:34:41;6.50;99.90
49441;DHT22;35317;51.978;6.296;2024-02-26T11:39:43;6.50;99.90
49441;DHT22;35317;51.978;6.296;2024-02-26T11:44:45;6.50;99.90
49441;DHT22;35317;51.978;6.296;2024-02-26T11:49:46;6.50;99.90
49441;DHT22;35317;51.978;6.296;2024-02-26T11:54:50;6.60;99.90
49441;DHT22;35317;51.978;6.296;2024-02-26T11:59:51;6.60;99.90
49441;DHT22;35317;51.978;6.296;2024-02-26T12:04:53;6.60;99.90
49441;DHT22;35317;51.978;6.296;2024-02-26T12:10:14;6.60;99.90
49441;DHT22;35317;51.978;6.296;2024-02-26T12:15:16;6.60;99.90
49441;DHT22;35317;51.978;6.296;2024-02-26T12:20:18;6.60;99.90
49441;DHT22;35317;51.978;6.296;2024-02-26T12:25:24;6.60;99.90
49441;DHT22;35317;51.978;6.296;2024-02-26T12:30:26;6.60;99.90
49441;DHT22;35317;51.978;6.296;2024-02-26T12:35:30;6.60;99.90
49441;DHT22;35317;51.978;6.296;2024-02-26T12:40:32;6.60;99.90
49441;DHT22;35317;51.978;6.296;2024-02-26T12:45:33;6.70;99.90
49441;DHT22;35317;51.978;6.296;2024-02-26T12:50:34;6.70;99.90
49441;DHT22;35317;51.978;6.296;2024-02-26T12:55:35;6.70;99.90
49441;DHT22;35317;51.978;6.296;2024-02-26T13:00:37;6.80;99.90
49441;DHT22;35317;51.978;6.296;2024-02-26T13:05:39;6.80;99.90
49441;DHT22;35317;51.978;6.296;2024-02-26T13:10:41;6.90;99.90
49441;DHT22;35317;51.978;6.296;2024-02-26T13:15:41;6.90;99.90
49441;DHT22;35317;51.978;6.296;2024-02-26T13:20:42;7.00;99.90
49441;DHT22;35317;51.978;6.296;2024-02-26T13:25:43;7.00;99.90
49441;DHT22;35317;51.978;6.296;2024-02-26T13:30:51;7.00;99.90
49441;DHT22;35317;51.978;6.296;2024-02-26T13:35:54;7.00;99.90
49441;DHT22;35317;51.978;6.296;2024-02-26T13:40:55;7.10;99.90
49441;DHT22;35317;51.978;6.296;2024-02-26T13:45:56;7.10;99.90
49441;DHT22;35317;51.978;6.296;2024-02-26T13:50:57;7.10;99.90
49441;DHT22;35317;51.978;6.296;2024-02-26T13:55:58;7.10;99.90
49441;DHT22;35317;51.978;6.296;2024-02-26T14:01:01;7.20;99.90
49441;DHT22;35317;51.978;6.296;2024-02-26T14:06:04;7.20;99.90
49441;DHT22;35317;51.978;6.296;2024-02-26T14:11:06;7.20;99.90
49441;DHT22;35317;51.978;6.296;2024-02-26T14:16:07;7.10;99.90
49441;DHT22;35317;51.978;6.296;2024-02-26T14:21:07;7.10;99.90
49441;DHT22;35317;51.978;6.296;2024-02-26T14:26:08;7.10;99.90
49441;DHT22;35317;51.978;6.296;2024-02-26T14:31:09;7.10;99.90
49441;DHT22;35317;51.978;6.296;2024-02-26T14:36:11;7.10;99.90
49441;DHT22;35317;51.978;6.296;2024-02-26T14:41:12;7.10;99.90
49441;DHT22;35317;51.978;6.296;2024-02-26T14:46:13;7.00;99.90
49441;DHT22;35317;51.978;6.296;2024-02-26T14:51:13;7.00;99.90
49441;DHT22;35317;51.978;6.296;2024-02-26T14:56:14;7.00;99.90
49441;DHT22;35317;51.978;6.296;2024-02-26T15:01:15;7.00;99.90
49441;DHT22;35317;51.978;6.296;2024-02-26T15:06:16;7.00;99.90
49441;DHT22;35317;51.978;6.296;2024-02-26T15:11:17;7.00;99.90
49441;DHT22;35317;51.978;6.296;2024-02-26T15:16:18;7.00;99.90
49441;DHT22;35317;51.978;6.296;2024-02-26T15:21:21;7.00;99.90
49441;DHT22;35317;51.978;6.296;2024-02-26T15:26:21;7.00;99.90
49441;DHT22;35317;51.978;6.296;2024-02-26T15:31:22;7.00;99.90
49441;DHT22;35317;51.978;6.296;2024-02-26T15:36:23;7.00;99.90
49441;DHT22;35317;51.978;6.296;2024-02-26T15:41:24;7.00;99.90
49441;DHT22;35317;51.978;6.296;2024-02-26T15:46:25;7.00;99.90
49441;DHT22;35317;51.978;6.296;2024-02-26T15:51:25;7.10;99.90
49441;DHT22;35317;51.978;6.296;2024-02-26T15:56:26;7.10;99.90
49441;DHT22;35317;51.978;6.296;2024-02-26T16:01:27;7.10;99.90
49441;DHT22;35317;51.978;6.296;2024-02-26T16:06:34;7.00;99.90
49441;DHT22;35317;51.978;6.296;2024-02-26T16:11:37;7.10;99.90
49441;DHT22;35317;51.978;6.296;2024-02-26T16:16:44;7.10;99.90
49441;DHT22;35317;51.978;6.296;2024-02-26T16:21:48;7.00;99.90
49441;DHT22;35317;51.978;6.296;2024-02-26T16:26:49;7.00;99.90
49441;DHT22;35317;51.978;6.296;2024-02-26T16:31:49;6.90;99.90
49441;DHT22;35317;51.978;6.296;2024-02-26T16:36:50;6.90;99.90
49441;DHT22;35317;51.978;6.296;2024-02-26T16:41:51;6.90;99.90
49441;DHT22;35317;51.978;6.296;2024-02-26T16:46:52;6.80;99.90
49441;DHT22;35317;51.978;6.296;2024-02-26T16:51:53;6.80;99.90
49441;DHT22;35317;51.978;6.296;2024-02-26T16:56:54;6.80;99.90
49441;DHT22;35317;51.978;6.296;2024-02-26T17:01:55;6.70;99.90
49441;DHT22;35317;51.978;6.296;2024-02-26T17:06:56;6.60;99.90
49441;DHT22;35317;51.978;6.296;2024-02-26T17:11:57;6.60;99.90
49441;DHT22;35317;51.978;6.296;2024-02-26T17:16:58;6.60;99.90
49441;DHT22;35317;51.978;6.296;2024-02-26T17:21:59;6.50;99.90
49441;DHT22;35317;51.978;6.296;2024-02-26T17:27:00;6.40;99.90
49441;DHT22;35317;51.978;6.296;2024-02-26T17:32:01;6.40;99.90
49441;DHT22;35317;51.978;6.296;2024-02-26T17:37:04;6.30;99.90
49441;DHT22;35317;51.978;6.296;2024-02-26T17:42:05;6.30;99.90
49441;DHT22;35317;51.978;6.296;2024-02-26T17:47:06;6.20;99.90
49441;DHT22;35317;51.978;6.296;2024-02-26T17:52:07;6.20;99.90
49441;DHT22;35317;51.978;6.296;2024-02-26T17:57:08;6.20;99.90
49441;DHT22;35317;51.978;6.296;2024-02-26T18:02:09;6.20;99.90
49441;DHT22;35317;51.978;6.296;2024-02-26T18:07:10;6.10;99.90
49441;DHT22;35317;51.978;6.296;2024-02-26T18:12:13;6.10;99.90
49441;DHT22;35317;51.978;6.296;2024-02-26T18:17:14;6.10;99.90
49441;DHT22;35317;51.978;6.296;2024-02-26T18:22:15;6.10;99.90
49441;DHT22;35317;51.978;6.296;2024-02-26T18:27:16;6.10;99.90
49441;DHT22;35317;51.978;6.296;2024-02-26T18:32:16;6.10;99.90
49441;DHT22;35317;51.978;6.296;2024-02-26T18:37:18;6.00;99.90
49441;DHT22;35317;51.978;6.296;2024-02-26T18:42:19;6.00;99.90
49441;DHT22;35317;51.978;6.296;2024-02-26T18:47:20;6.10;99.90
49441;DHT22;35317;51.978;6.296;2024-02-26T18:52:23;6.00;99.90
49441;DHT22;35317;51.978;6.296;2024-02-26T18:57:24;6.00;99.90
49441;DHT22;35317;51.978;6.296;2024-02-26T19:02:25;6.00;99.90
49441;DHT22;35317;51.978;6.296;2024-02-26T19:07:28;6.00;99.90
49441;DHT22;35317;51.978;6.296;2024-02-26T19:12:29;6.00;99.90
49441;DHT22;35317;51.978;6.296;2024-02-26T19:17:30;6.00;99.90
49441;DHT22;35317;51.978;6.296;2024-02-26T19:22:31;6.00;99.90
49441;DHT22;35317;51.978;6.296;2024-02-26T19:27:32;6.00;99.90
49441;DHT22;35317;51.978;6.296;2024-02-26T19:32:32;6.00;99.90
49441;DHT22;35317;51.978;6.296;2024-02-26T19:37:33;6.00;99.90
49441;DHT22;35317;51.978;6.296;2024-02-26T19:42:34;6.00;99.90
49441;DHT22;35317;51.978;6.296;2024-02-26T19:47:35;5.90;99.90
49441;DHT22;35317;51.978;6.296;2024-02-26T19:52:40;5.90;99.90
49441;DHT22;35317;51.978;6.296;2024-02-26T19:57:40;5.90;99.90
49441;DHT22;35317;51.978;6.296;2024-02-26T20:02:41;5.90;99.90
49441;DHT22;35317;51.978;6.296;2024-02-26T20:07:43;5.90;99.90
49441;DHT22;35317;51.978;6.296;2024-02-26T20:12:44;5.90;99.90
49441;DHT22;35317;51.978;6.296;2024-02-26T20:17:45;5.90;99.90
49441;DHT22;35317;51.978;6.296;2024-02-26T20:22:47;5.90;99.90
49441;DHT22;35317;51.978;6.296;2024-02-26T20:27:48;5.90;99.90
49441;DHT22;35317;51.978;6.296;2024-02-26T20:32:49;5.80;99.90
49441;DHT22;35317;51.978;6.296;2024-02-26T20:37:50;5.80;99.90
49441;DHT22;35317;51.978;6.296;2024-02-26T20:42:51;5.80;99.90
49441;DHT22;35317;51.978;6.296;2024-02-26T20:47:55;5.80;99.90
49441;DHT22;35317;51.978;6.296;2024-02-26T20:52:57;5.80;99.90
49441;DHT22;35317;51.978;6.296;2024-02-26T20:57:59;5.80;99.90
49441;DHT22;35317;51.978;6.296;2024-02-26T21:03:00;5.80;99.90
49441;DHT22;35317;51.978;6.296;2024-02-26T21:08:09;5.80;99.90
49441;DHT22;35317;51.978;6.296;2024-02-26T21:13:11;5.80;99.90
49441;DHT22;35317;51.978;6.296;2024-02-26T21:18:12;5.70;99.90
49441;DHT22;35317;51.978;6.296;2024-02-26T21:23:14;5.80;99.90
49441;DHT22;35317;51.978;6.296;2024-02-26T21:28:15;5.80;99.90
49441;DHT22;35317;51.978;6.296;2024-02-26T21:33:16;5.70;99.90
49441;DHT22;35317;51.978;6.296;2024-02-26T21:38:17;5.70;99.90
49441;DHT22;35317;51.978;6.296;2024-02-26T21:43:20;5.80;99.90
49441;DHT22;35317;51.978;6.296;2024-02-26T21:48:22;5.70;99.90
49441;DHT22;35317;51.978;6.296;2024-02-26T21:53:24;5.70;99.90
49441;DHT22;35317;51.978;6.296;2024-02-26T21:58:25;5.70;99.90
49441;DHT22;35317;51.978;6.296;2024-02-26T22:03:26;5.80;99.90
49441;DHT22;35317;51.978;6.296;2024-02-26T22:08:27;5.70;99.90
49441;DHT22;35317;51.978;6.296;2024-02-26T22:13:28;5.70;99.90
49441;DHT22;35317;51.978;6.296;2024-02-26T22:18:29;5.70;99.90
49441;DHT22;35317;51.978;6.296;2024-02-26T22:23:30;5.70;99.90
49441;DHT22;35317;51.978;6.296;2024-02-26T22:28:31;5.70;99.90
49441;DHT22;35317;51.978;6.296;2024-02-26T22:33:32;5.70;99.90
49441;DHT22;35317;51.978;6.296;2024-02-26T22:38:33;5.70;99.90
49441;DHT22;35317;51.978;6.296;2024-02-26T22:43:34;5.70;99.90
49441;DHT22;35317;51.978;6.296;2024-02-26T22:48:34;5.70;99.90
49441;DHT22;35317;51.978;6.296;2024-02-26T22:53:35;5.70;99.90
49441;DHT22;35317;51.978;6.296;2024-02-26T22:58:36;5.60;99.90
49441;DHT22;35317;51.978;6.296;2024-02-26T23:03:37;5.50;99.90
49441;DHT22;35317;51.978;6.296;2024-02-26T23:08:38;5.50;99.90
49441;DHT22;35317;51.978;6.296;2024-02-26T23:13:39;5.40;99.90
49441;DHT22;35317;51.978;6.296;2024-02-26T23:18:41;5.30;99.90
49441;DHT22;35317;51.978;6.296;2024-02-26T23:23:42;5.20;99.90
49441;DHT22;35317;51.978;6.296;2024-02-26T23:28:43;5.10;99.90
49441;DHT22;35317;51.978;6.296;2024-02-26T23:33:44;5.00;99.90
49441;DHT22;35317;51.978;6.296;2024-02-26T23:38:45;4.90;99.90
49441;DHT22;35317;51.978;6.296;2024-02-26T23:43:46;4.80;99.90
49441;DHT22;35317;51.978;6.296;2024-02-26T23:48:47;4.80;99.90
49441;DHT22;35317;51.978;6.296;2024-02-26T23:53:47;4.80;99.90
49441;DHT22;35317;51.978;6.296;2024-02-26T23:58:48;4.90;99.90
